createdAt,value
2018-05-08T00:01:47.823Z,12.10
2018-05-08T00:04:16.664Z,12.10
2018-05-08T00:06:45.517Z,14.53
2018-05-08T00:09:14.369Z,14.40
2018-05-08T00:11:43.211Z,13.73
2018-05-08T00:14:12.059Z,12.63
2018-05-08T00:16:40.915Z,14.87
2018-05-08T00:19:09.758Z,13.27
2018-05-08T00:21:38.607Z,13.13
2018-05-08T00:24:07.438Z,11.63
2018-05-08T00:26:36.374Z,13.23
2018-05-08T00:29:05.211Z,12.53
2018-05-08T00:31:34.075Z,12.33
2018-05-08T00:34:02.941Z,12.47
2018-05-08T00:36:32.627Z,12.07
2018-05-08T00:39:01.460Z,13.07
2018-05-08T00:41:31.098Z,12.53
2018-05-08T00:44:01.100Z,12.73
2018-05-08T00:46:30.748Z,13.63
2018-05-08T00:49:00.926Z,11.90
2018-05-08T00:51:30.767Z,9.67
2018-05-08T00:53:59.617Z,12.50
2018-05-08T00:56:28.465Z,12.33
2018-05-08T00:58:57.351Z,11.33
2018-05-08T01:01:26.197Z,11.90
2018-05-08T01:03:55.075Z,11.43
2018-05-08T01:06:23.926Z,11.13
2018-05-08T01:08:52.765Z,9.13
2018-05-08T01:11:21.601Z,9.10
2018-05-08T01:13:50.462Z,8.80
2018-05-08T01:16:19.347Z,10.63
2018-05-08T01:18:48.201Z,8.57
2018-05-08T01:21:17.542Z,10.87
2018-05-08T01:23:46.408Z,12.63
2018-05-08T01:26:15.242Z,10.33
2018-05-08T01:28:44.107Z,9.20
2018-05-08T01:31:12.957Z,8.63
2018-05-08T01:33:41.787Z,8.43
2018-05-08T01:36:10.638Z,17.50
2018-05-08T01:38:39.483Z,11.87
2018-05-08T01:41:08.387Z,10.43
2018-05-08T01:43:37.226Z,11.53
2018-05-08T01:46:06.110Z,11.53
2018-05-08T01:48:34.949Z,10.77
2018-05-08T01:51:03.793Z,9.17
2018-05-08T01:53:32.663Z,9.90
2018-05-08T01:56:01.520Z,12.33
2018-05-08T01:58:30.402Z,10.57
2018-05-08T02:01:00.970Z,10.30
2018-05-08T02:03:29.830Z,9.57
2018-05-08T02:05:58.682Z,11.00
2018-05-08T02:08:28.528Z,9.63
2018-05-08T02:10:57.388Z,11.37
2018-05-08T02:13:26.207Z,9.23
2018-05-08T02:15:55.122Z,11.93
2018-05-08T02:18:24.018Z,11.80
2018-05-08T02:20:52.842Z,12.03
2018-05-08T02:23:21.724Z,10.43
2018-05-08T02:25:50.592Z,9.73
2018-05-08T02:28:19.525Z,10.50
2018-05-08T02:30:48.404Z,10.37
2018-05-08T02:33:17.255Z,10.47
2018-05-08T02:35:46.104Z,10.87
2018-05-08T02:38:14.976Z,15.73
2018-05-08T02:40:43.813Z,11.00
2018-05-08T02:43:12.665Z,11.43
2018-05-08T02:45:41.591Z,9.70
2018-05-08T02:48:10.457Z,10.57
2018-05-08T02:50:39.287Z,11.50
2018-05-08T02:53:08.147Z,10.33
2018-05-08T02:55:36.987Z,11.37
2018-05-08T02:58:05.842Z,11.23
2018-05-08T03:00:34.739Z,12.33
2018-05-08T03:03:03.593Z,13.90
2018-05-08T03:05:32.460Z,13.27
2018-05-08T03:08:01.351Z,13.40
2018-05-08T03:10:30.343Z,12.63
2018-05-08T03:12:59.203Z,12.53
2018-05-08T03:15:28.086Z,18.43
2018-05-08T03:17:56.920Z,18.70
2018-05-08T03:20:25.790Z,16.30
2018-05-08T03:22:54.630Z,16.00
2018-05-08T03:25:23.478Z,18.00
2018-05-08T03:27:52.358Z,13.50
2018-05-08T03:30:21.227Z,12.57
2018-05-08T03:32:50.098Z,14.80
2018-05-08T03:35:19.251Z,12.97
2018-05-08T03:37:48.116Z,14.00
2018-05-08T03:40:16.959Z,13.53
2018-05-08T03:42:45.813Z,13.87
2018-05-08T03:45:14.972Z,11.23
2018-05-08T03:47:43.844Z,14.13
2018-05-08T03:50:12.683Z,12.87
2018-05-08T03:52:41.543Z,13.43
2018-05-08T03:55:10.421Z,15.00
2018-05-08T03:57:39.271Z,16.50
2018-05-08T04:00:08.105Z,18.37
2018-05-08T04:02:54.781Z,13.60
2018-05-08T04:05:29.409Z,13.40
2018-05-08T04:08:04.165Z,15.70
2018-05-08T04:10:33.044Z,13.17
2018-05-08T04:13:02.792Z,13.13
2018-05-08T04:15:31.704Z,13.53
2018-05-08T04:18:00.543Z,14.50
2018-05-08T04:20:29.406Z,13.30
2018-05-08T04:22:58.257Z,17.37
2018-05-08T04:25:27.110Z,14.23
2018-05-08T04:27:55.995Z,15.70
2018-05-08T04:30:24.850Z,14.50
2018-05-08T04:32:53.692Z,11.23
2018-05-08T04:35:22.569Z,14.37
2018-05-08T04:37:51.418Z,15.33
2018-05-08T04:40:20.292Z,16.23
2018-05-08T04:42:49.157Z,16.87
2018-05-08T04:45:18.191Z,14.43
2018-05-08T04:47:48.437Z,13.33
2018-05-08T04:50:17.674Z,16.43
2018-05-08T04:52:46.518Z,13.33
2018-05-08T04:55:15.432Z,12.83
2018-05-08T04:57:44.274Z,17.13
2018-05-08T05:00:13.133Z,16.57
2018-05-08T05:02:42.053Z,14.50
2018-05-08T05:05:10.868Z,13.90
2018-05-08T05:07:39.698Z,14.93
2018-05-08T05:10:08.564Z,14.33
2018-05-08T05:12:37.421Z,13.00
2018-05-08T05:15:06.284Z,12.90
2018-05-08T05:17:35.135Z,12.70
2018-05-08T05:20:04.009Z,14.27
2018-05-08T05:22:32.854Z,12.93
2018-05-08T05:25:01.723Z,12.27
2018-05-08T05:27:30.581Z,11.93
2018-05-08T05:29:59.435Z,16.27
2018-05-08T05:32:28.284Z,11.60
2018-05-08T05:34:57.115Z,13.33
2018-05-08T05:37:26.845Z,11.80
2018-05-08T05:39:55.725Z,11.87
2018-05-08T05:42:24.574Z,13.03
2018-05-08T05:44:53.461Z,13.07
2018-05-08T05:47:23.113Z,12.00
2018-05-08T05:49:51.955Z,11.83
2018-05-08T05:52:20.797Z,11.47
2018-05-08T05:54:49.629Z,10.37
2018-05-08T05:57:19.087Z,12.70
2018-05-08T05:59:47.938Z,16.37
2018-05-08T06:02:16.823Z,13.07
2018-05-08T06:04:45.668Z,12.63
2018-05-08T06:07:14.553Z,12.03
2018-05-08T06:09:43.413Z,11.90
2018-05-08T06:12:12.259Z,10.63
2018-05-08T06:14:41.176Z,11.67
2018-05-08T06:17:10.049Z,10.93
2018-05-08T06:19:38.885Z,9.90
2018-05-08T06:22:07.715Z,10.10
2018-05-08T06:24:41.679Z,9.13
2018-05-08T06:27:13.478Z,9.20
2018-05-08T06:29:49.052Z,13.33
2018-05-08T06:32:17.895Z,11.37
2018-05-08T06:34:49.432Z,8.87
2018-05-08T06:37:19.611Z,8.93
2018-05-08T06:39:48.474Z,9.53
2018-05-08T06:42:21.478Z,9.67
2018-05-08T06:44:50.329Z,7.83
2018-05-08T06:47:19.178Z,9.50
2018-05-08T06:49:49.004Z,7.73
2018-05-08T06:52:19.594Z,9.87
2018-05-08T06:54:48.495Z,8.50
2018-05-08T06:57:17.330Z,8.30
2018-05-08T06:59:46.177Z,7.83
2018-05-08T07:02:15.011Z,10.63
2018-05-08T07:04:43.862Z,10.17
2018-05-08T07:07:12.713Z,8.33
2018-05-08T07:09:41.546Z,10.17
2018-05-08T07:12:10.442Z,8.60
2018-05-08T07:14:40.022Z,11.90
2018-05-08T07:17:08.870Z,7.60
2018-05-08T07:19:41.154Z,7.80
2018-05-08T07:22:09.998Z,9.43
2018-05-08T07:24:38.832Z,8.77
2018-05-08T07:27:07.683Z,7.03
2018-05-08T07:29:36.546Z,10.20
2018-05-08T07:32:05.442Z,8.73
2018-05-08T07:34:34.293Z,6.83
2018-05-08T07:37:03.160Z,9.70
2018-05-08T07:39:32.124Z,8.33
2018-05-08T07:42:01.014Z,9.53
2018-05-08T07:44:30.654Z,7.97
2018-05-08T07:47:02.206Z,8.20
2018-05-08T07:49:31.918Z,10.87
2018-05-08T07:52:00.764Z,7.13
2018-05-08T07:54:29.610Z,8.83
2018-05-08T07:56:58.446Z,7.33
2018-05-08T07:59:27.289Z,10.10
2018-05-08T08:01:56.146Z,6.30
2018-05-08T08:04:25.024Z,6.27
2018-05-08T08:06:53.850Z,7.77
2018-05-08T08:09:22.797Z,5.77
2018-05-08T08:11:51.636Z,6.30
2018-05-08T08:14:20.508Z,7.47
2018-05-08T08:16:49.358Z,4.93
2018-05-08T08:19:18.210Z,6.07
2018-05-08T08:21:47.120Z,7.80
2018-05-08T08:24:15.966Z,4.60
2018-05-08T08:26:44.828Z,6.00
2018-05-08T08:29:14.279Z,6.93
2018-05-08T08:31:43.209Z,7.63
2018-05-08T08:34:12.049Z,7.57
2018-05-08T08:36:40.895Z,7.73
2018-05-08T08:39:09.723Z,7.27
2018-05-08T08:41:39.175Z,5.20
2018-05-08T08:44:08.005Z,4.93
2018-05-08T08:46:37.777Z,6.83
2018-05-08T08:49:06.588Z,9.77
2018-05-08T08:51:35.468Z,8.63
2018-05-08T08:54:04.308Z,5.87
2018-05-08T08:56:33.175Z,6.47
2018-05-08T08:59:02.022Z,3.97
2018-05-08T09:01:30.903Z,6.80
2018-05-08T09:04:00.550Z,6.27
2018-05-08T09:06:29.462Z,6.87
2018-05-08T09:20:08.592Z,7.57
2018-05-08T09:22:37.528Z,6.43
2018-05-08T09:25:06.384Z,5.77
2018-05-08T09:27:35.303Z,5.53
2018-05-08T09:30:04.155Z,4.80
2018-05-08T09:32:33.004Z,5.33
2018-05-08T09:35:01.857Z,6.23
2018-05-08T09:37:30.761Z,7.18
2018-05-08T09:39:59.587Z,4.23
2018-05-08T09:42:28.478Z,6.47
2018-05-08T09:44:58.157Z,5.60
2018-05-08T09:47:27.019Z,4.40
2018-05-08T09:49:55.889Z,4.57
2018-05-08T09:52:24.744Z,5.93
2018-05-08T09:54:53.583Z,6.40
2018-05-08T09:57:22.509Z,5.83
2018-05-08T09:59:51.355Z,4.10
2018-05-08T10:02:20.195Z,5.07
2018-05-08T10:04:49.056Z,5.43
2018-05-08T10:07:18.187Z,10.07
2018-05-08T10:09:47.125Z,6.17
2018-05-08T10:12:15.985Z,6.27
2018-05-08T10:14:44.847Z,6.27
2018-05-08T10:17:13.710Z,3.80
2018-05-08T10:19:42.647Z,7.70
2018-05-08T10:22:11.499Z,4.10
2018-05-08T10:24:40.363Z,3.17
2018-05-08T10:27:09.237Z,3.80
2018-05-08T10:29:38.085Z,6.33
2018-05-08T10:32:06.972Z,5.67
2018-05-08T10:34:35.871Z,5.30
2018-05-08T10:37:04.702Z,6.90
2018-05-08T10:39:33.571Z,4.10
2018-05-08T10:42:02.411Z,8.40
2018-05-08T10:44:31.258Z,5.10
2018-05-08T10:47:00.148Z,6.93
2018-05-08T10:49:28.973Z,4.47
2018-05-08T10:51:57.817Z,6.90
2018-05-08T10:54:26.697Z,3.97
2018-05-08T10:56:55.565Z,5.70
2018-05-08T10:59:24.410Z,7.70
2018-05-08T11:01:53.261Z,4.93
2018-05-08T11:04:22.129Z,3.83
2018-05-08T11:06:51.001Z,5.50
2018-05-08T11:09:20.001Z,4.18
2018-05-08T11:11:48.880Z,6.40
2018-05-08T11:14:17.831Z,3.08
2018-05-08T11:16:46.689Z,7.20
2018-05-08T11:19:15.573Z,12.00
2018-05-08T11:21:44.430Z,5.22
2018-05-08T11:24:13.285Z,3.85
2018-05-08T11:26:42.183Z,3.35
2018-05-08T11:29:11.008Z,6.28
2018-05-08T11:31:39.866Z,6.57
2018-05-08T11:34:08.710Z,4.10
2018-05-08T11:36:37.602Z,3.53
2018-05-08T11:39:06.512Z,5.45
2018-05-08T11:41:35.372Z,2.10
2018-05-08T11:44:04.282Z,2.30
2018-05-08T11:46:33.182Z,5.40
2018-05-08T11:49:02.024Z,2.75
2018-05-08T11:51:30.928Z,3.92
2018-05-08T11:54:00.035Z,4.32
2018-05-08T11:56:28.936Z,4.78
2018-05-08T11:58:57.786Z,4.18
2018-05-08T12:01:26.651Z,2.30
2018-05-08T12:03:55.543Z,2.20
2018-05-08T12:06:24.412Z,2.05
2018-05-08T12:08:54.162Z,3.37
2018-05-08T12:11:23.033Z,3.58
2018-05-08T12:13:51.891Z,5.35
2018-05-08T12:16:20.729Z,3.33
2018-05-08T12:18:49.607Z,4.53
2018-05-08T12:21:18.542Z,4.85
2018-05-08T12:23:47.379Z,2.25
2018-05-08T12:26:16.267Z,2.03
2018-05-08T12:28:45.098Z,2.92
2018-05-08T12:31:13.939Z,3.50
2018-05-08T12:33:42.838Z,3.22
2018-05-08T12:36:11.687Z,2.90
2018-05-08T12:38:40.560Z,3.60
2018-05-08T12:41:09.434Z,3.75
2018-05-08T12:43:38.393Z,2.95
2018-05-08T12:46:07.261Z,3.53
2018-05-08T12:48:36.113Z,2.75
2018-05-08T12:51:05.019Z,3.58
2018-05-08T12:53:33.912Z,2.17
2018-05-08T12:56:02.766Z,4.75
2018-05-08T12:58:31.622Z,4.00
2018-05-08T13:01:00.544Z,2.25
2018-05-08T13:03:29.404Z,2.60
2018-05-08T13:05:58.291Z,3.70
2018-05-08T13:08:27.128Z,3.10
2018-05-08T13:10:56.066Z,1.83
2018-05-08T13:13:24.916Z,4.78
2018-05-08T13:15:53.749Z,3.65
2018-05-08T13:18:23.887Z,2.87
2018-05-08T13:20:52.724Z,2.40
2018-05-08T13:23:21.612Z,2.35
2018-05-08T13:25:50.457Z,2.22
2018-05-08T13:28:19.336Z,3.42
2018-05-08T13:30:48.256Z,2.03
2018-05-08T13:33:17.116Z,2.80
2018-05-08T13:35:45.991Z,2.92
2018-05-08T13:38:14.873Z,2.30
2018-05-08T13:40:43.713Z,5.32
2018-05-08T13:43:12.614Z,2.33
2018-05-08T13:45:41.453Z,2.97
2018-05-08T13:48:10.343Z,3.08
2018-05-08T13:50:40.118Z,2.25
2018-05-08T13:53:08.970Z,3.67
2018-05-08T13:55:37.843Z,2.45
2018-05-08T13:58:07.482Z,3.40
2018-05-08T14:00:36.351Z,2.75
2018-05-08T14:03:05.197Z,2.37
2018-05-08T14:05:34.044Z,6.55
2018-05-08T14:08:02.964Z,2.15
2018-05-08T14:10:31.798Z,3.17
2018-05-08T14:13:00.672Z,4.22
2018-05-08T14:15:29.622Z,6.28
2018-05-08T14:17:58.465Z,2.67
2018-05-08T14:20:27.335Z,4.97
2018-05-08T14:22:56.240Z,5.12
2018-05-08T14:25:25.066Z,2.83
2018-05-08T14:27:53.940Z,5.45
2018-05-08T14:30:22.876Z,6.07
2018-05-08T14:32:51.721Z,3.72
2018-05-08T14:35:20.599Z,3.10
2018-05-08T14:37:49.496Z,6.12
2018-05-08T14:42:52.495Z,3.12
2018-05-08T14:45:21.417Z,5.25
2018-05-08T14:47:50.276Z,5.40
2018-05-08T14:50:19.198Z,2.83
2018-05-08T14:52:48.034Z,3.47
2018-05-08T14:55:17.018Z,5.87
2018-05-08T14:57:47.010Z,4.47
2018-05-08T15:00:15.859Z,3.47
2018-05-08T15:02:44.706Z,2.87
2018-05-08T15:05:13.603Z,3.08
2018-05-08T15:07:42.482Z,2.50
2018-05-08T15:10:11.351Z,5.30
2018-05-08T15:12:40.232Z,2.10
2018-05-08T15:15:09.083Z,4.50
2018-05-08T15:17:37.946Z,4.68
2018-05-08T15:20:06.839Z,3.78
2018-05-08T15:22:35.949Z,2.78
2018-05-08T15:25:06.514Z,2.58
2018-05-08T15:27:35.445Z,3.25
2018-05-08T15:30:04.350Z,2.55
2018-05-08T15:32:33.222Z,4.70
2018-05-08T15:35:03.069Z,5.25
2018-05-08T15:37:32.888Z,7.97
2018-05-08T15:40:01.993Z,4.12
2018-05-08T15:42:30.838Z,4.05
2018-05-08T15:44:59.718Z,2.87
2018-05-08T15:47:28.619Z,9.32
2018-05-08T15:49:58.224Z,2.75
2018-05-08T15:52:27.090Z,5.30
2018-05-08T15:54:55.950Z,4.55
2018-05-08T15:57:24.794Z,3.60
2018-05-08T15:59:53.718Z,6.70
2018-05-08T16:02:22.717Z,4.40
2018-05-08T16:04:51.624Z,4.75
2018-05-08T16:07:20.495Z,3.42
2018-05-08T16:09:50.699Z,4.10
2018-05-08T16:12:19.741Z,3.55
2018-05-08T16:14:48.655Z,3.40
2018-05-08T16:17:17.506Z,5.45
2018-05-08T16:19:46.381Z,3.92
2018-05-08T16:22:15.256Z,5.55
2018-05-08T16:24:46.471Z,4.35
2018-05-08T16:27:15.335Z,3.50
2018-05-08T16:29:44.197Z,5.78
2018-05-08T16:32:13.055Z,2.85
2018-05-08T16:34:41.920Z,5.25
2018-05-08T16:37:10.764Z,4.62
2018-05-08T16:39:39.649Z,2.70
2018-05-08T16:42:08.491Z,4.32
2018-05-08T16:44:37.555Z,7.07
2018-05-08T16:47:06.422Z,6.80
2018-05-08T16:49:35.309Z,6.07
2018-05-08T16:52:04.181Z,5.07
2018-05-08T16:54:33.060Z,5.22
2018-05-08T16:57:01.915Z,3.97
2018-05-08T16:59:30.778Z,8.57
2018-05-08T17:01:59.671Z,3.60
2018-05-08T17:04:28.522Z,4.10
2018-05-08T17:06:58.330Z,5.00
2018-05-08T17:09:27.170Z,5.18
2018-05-08T17:11:56.034Z,5.75
2018-05-08T17:14:24.942Z,4.62
2018-05-08T17:16:53.778Z,3.65
2018-05-08T17:19:22.672Z,2.87
2018-05-08T17:21:51.538Z,3.15
2018-05-08T17:24:20.400Z,3.28
2018-05-08T17:26:49.277Z,3.10
2018-05-08T17:29:18.251Z,4.12
2018-05-08T17:31:47.133Z,3.10
2018-05-08T17:34:15.975Z,6.35
2018-05-08T17:36:45.253Z,4.80
2018-05-08T17:39:14.106Z,6.22
2018-05-08T17:41:42.960Z,3.95
2018-05-08T17:44:11.823Z,4.70
2018-05-08T17:46:40.686Z,3.83
2018-05-08T17:49:09.633Z,3.10
2018-05-08T17:51:38.544Z,5.72
2018-05-08T17:54:07.415Z,4.55
2018-05-08T17:56:36.302Z,6.35
2018-05-08T17:59:05.152Z,3.62
2018-05-08T18:01:34.000Z,3.30
2018-05-08T18:04:02.927Z,3.65
2018-05-08T18:06:31.771Z,4.60
2018-05-08T18:09:00.670Z,4.72
2018-05-08T18:11:29.596Z,6.28
2018-05-08T18:13:58.998Z,4.07
2018-05-08T18:16:27.859Z,7.37
2018-05-08T18:18:56.742Z,4.95
2018-05-08T18:21:25.580Z,5.10
2018-05-08T18:23:54.442Z,3.15
2018-05-08T18:26:23.287Z,5.20
2018-05-08T18:28:52.125Z,3.58
2018-05-08T18:31:20.990Z,5.05
2018-05-08T18:33:49.842Z,4.25
2018-05-08T18:36:19.685Z,7.35
2018-05-08T18:38:48.563Z,7.18
2018-05-08T18:41:17.732Z,7.12
2018-05-08T18:43:46.572Z,4.95
2018-05-08T18:46:17.067Z,5.68
2018-05-08T18:48:47.743Z,5.37
2018-05-08T18:51:16.639Z,5.95
2018-05-08T18:53:45.509Z,6.43
2018-05-08T18:56:14.366Z,4.78
2018-05-08T18:58:43.215Z,6.55
2018-05-08T19:01:12.103Z,6.00
2018-05-08T19:03:41.059Z,8.02
2018-05-08T19:06:09.833Z,5.35
2018-05-08T19:08:38.749Z,6.55
2018-05-08T19:11:13.337Z,5.12
2018-05-08T19:13:42.268Z,7.20
2018-05-08T19:16:11.117Z,5.18
2018-05-08T19:18:45.707Z,6.10
2018-05-08T19:21:14.571Z,6.32
2018-05-08T19:23:49.383Z,5.87
2018-05-08T19:26:18.765Z,8.23
2018-05-08T19:28:53.493Z,5.78
2018-05-08T19:31:22.339Z,6.87
2018-05-08T19:33:51.216Z,6.83
2018-05-08T19:36:25.933Z,7.50
2018-05-08T19:38:54.773Z,5.40
2018-05-08T19:41:23.612Z,5.43
2018-05-08T19:43:52.476Z,11.50
2018-05-08T19:46:21.365Z,6.37
2018-05-08T19:48:50.222Z,4.83
2018-05-08T19:51:19.886Z,7.90
2018-05-08T19:53:48.731Z,6.63
2018-05-08T19:56:17.578Z,6.63
2018-05-08T19:58:46.480Z,6.63
2018-05-08T20:01:15.370Z,5.57
2018-05-08T20:03:44.224Z,8.80
2018-05-08T20:06:13.132Z,10.13
2018-05-08T20:08:42.028Z,7.20
2018-05-08T20:11:10.852Z,9.07
2018-05-08T20:13:39.854Z,11.60
2018-05-08T20:16:08.717Z,13.17
2018-05-08T20:18:37.992Z,24.87
2018-05-08T20:21:06.856Z,45.57
2018-05-08T20:23:35.725Z,54.23
2018-05-08T20:26:04.592Z,45.40
2018-05-08T20:28:34.754Z,58.33
2018-05-08T20:31:03.608Z,50.90
2018-05-08T20:33:32.476Z,41.67
2018-05-08T20:36:01.320Z,31.53
2018-05-08T20:38:30.181Z,24.90
2018-05-08T20:40:59.040Z,30.07
2018-05-08T20:43:27.918Z,16.40
2018-05-08T20:45:56.797Z,17.60
2018-05-08T20:48:27.384Z,22.00
2018-05-08T20:50:56.276Z,24.23
2018-05-08T20:53:25.142Z,23.50
2018-05-08T20:55:54.014Z,24.33
2018-05-08T20:58:22.883Z,24.63
2018-05-08T21:00:51.756Z,20.17
2018-05-08T21:03:20.602Z,20.00
2018-05-08T21:05:49.514Z,22.23
2018-05-08T21:08:18.379Z,19.57
2018-05-08T21:10:47.238Z,20.03
2018-05-08T21:13:16.919Z,13.20
2018-05-08T21:15:45.788Z,12.67
2018-05-08T21:18:14.693Z,13.47
2018-05-08T21:20:43.610Z,11.20
2018-05-08T21:23:12.491Z,8.53
2018-05-08T21:25:41.359Z,13.17
2018-05-08T21:28:15.891Z,16.17
2018-05-08T21:31:01.584Z,14.27
2018-05-08T21:33:30.468Z,14.60
2018-05-08T21:36:00.343Z,15.97
2018-05-08T21:38:30.456Z,10.90
2018-05-08T21:41:03.396Z,15.70
2018-05-08T21:43:35.538Z,12.17
2018-05-08T21:46:05.262Z,14.70
2018-05-08T21:48:36.070Z,15.37
2018-05-08T21:51:07.802Z,17.70
2018-05-08T21:56:24.088Z,16.53
2018-05-08T21:58:53.362Z,13.13
2018-05-08T22:01:27.509Z,17.23
2018-05-08T22:03:57.686Z,17.23
2018-05-08T22:06:28.858Z,15.37
2018-05-08T22:08:59.506Z,18.40
2018-05-08T22:11:28.538Z,16.80
2018-05-08T22:13:58.218Z,16.23
2018-05-08T22:16:27.160Z,14.20
2018-05-08T22:18:56.016Z,17.80
2018-05-08T22:21:24.888Z,21.77
2018-05-08T22:23:53.790Z,18.27
2018-05-08T22:26:24.127Z,17.60
2018-05-08T22:28:52.982Z,18.00
2018-05-08T22:31:21.858Z,17.13
2018-05-08T22:33:50.694Z,16.23
2018-05-08T22:36:19.552Z,19.60
2018-05-08T22:38:49.158Z,19.43
2018-05-08T22:41:18.013Z,21.97
2018-05-08T22:43:46.892Z,16.97
2018-05-08T22:46:15.781Z,21.17
2018-05-08T22:48:45.182Z,20.03
2018-05-08T22:51:14.048Z,20.33
2018-05-08T22:53:42.954Z,20.37
2018-05-08T22:56:11.851Z,24.20
2018-05-08T22:58:41.542Z,18.73
2018-05-08T23:01:10.554Z,20.00
2018-05-08T23:03:39.391Z,24.77
2018-05-08T23:06:08.230Z,20.03
2018-05-08T23:08:37.086Z,21.63
2018-05-08T23:11:06.218Z,19.90
2018-05-08T23:13:35.080Z,18.57
2018-05-08T23:16:03.947Z,23.07
2018-05-08T23:18:33.193Z,22.93
2018-05-08T23:21:02.106Z,20.93
2018-05-08T23:23:31.953Z,21.27
2018-05-08T23:26:00.833Z,19.03
2018-05-08T23:28:29.771Z,17.60
2018-05-08T23:30:58.835Z,20.10
2018-05-08T23:33:27.700Z,18.17
2018-05-08T23:35:57.597Z,22.77
2018-05-08T23:38:27.102Z,27.30
2018-05-08T23:40:56.183Z,21.03
2018-05-08T23:43:25.033Z,20.53
2018-05-08T23:45:54.243Z,21.50
2018-05-08T23:48:23.105Z,27.43
2018-05-08T23:50:52.097Z,20.57
2018-05-08T23:53:20.949Z,27.40
2018-05-08T23:55:49.827Z,27.50
2018-05-08T23:58:19.467Z,23.20
